sensor_id;sensor_type;location;lat;lon;timestamp;P1;durP1;ratioP1;P2;durP2;ratioP2
55069;SDS011;40967;52.070;8.596;2023-07-22T00:01:06;2.30;;;1.30;;
55069;SDS011;40967;52.070;8.596;2023-07-22T00:03:32;1.83;;;1.10;;
55069;SDS011;40967;52.070;8.596;2023-07-22T00:06:07;2.00;;;1.10;;
55069;SDS011;40967;52.070;8.596;2023-07-22T00:08:34;1.92;;;1.20;;
55069;SDS011;40967;52.070;8.596;2023-07-22T00:11:00;2.42;;;1.23;;
55069;SDS011;40967;52.070;8.596;2023-07-22T00:13:25;2.27;;;1.20;;
55069;SDS011;40967;52.070;8.596;2023-07-22T00:15:52;2.28;;;1.30;;
55069;SDS011;40967;52.070;8.596;2023-07-22T00:18:21;1.85;;;1.05;;
55069;SDS011;40967;52.070;8.596;2023-07-22T00:20:47;2.33;;;1.30;;
55069;SDS011;40967;52.070;8.596;2023-07-22T00:23:12;2.30;;;1.20;;
55069;SDS011;40967;52.070;8.596;2023-07-22T00:25:40;1.92;;;1.10;;
55069;SDS011;40967;52.070;8.596;2023-07-22T00:28:05;2.20;;;1.23;;
55069;SDS011;40967;52.070;8.596;2023-07-22T00:30:30;2.20;;;1.10;;
55069;SDS011;40967;52.070;8.596;2023-07-22T00:32:56;2.50;;;1.30;;
55069;SDS011;40967;52.070;8.596;2023-07-22T00:35:21;2.40;;;1.20;;
55069;SDS011;40967;52.070;8.596;2023-07-22T00:37:46;1.97;;;0.93;;
55069;SDS011;40967;52.070;8.596;2023-07-22T00:40:12;2.07;;;1.10;;
55069;SDS011;40967;52.070;8.596;2023-07-22T00:42:37;2.67;;;1.30;;
55069;SDS011;40967;52.070;8.596;2023-07-22T00:45:03;2.33;;;1.40;;
55069;SDS011;40967;52.070;8.596;2023-07-22T00:47:29;2.60;;;1.40;;
55069;SDS011;40967;52.070;8.596;2023-07-22T00:49:55;3.42;;;1.80;;
55069;SDS011;40967;52.070;8.596;2023-07-22T00:52:21;3.73;;;1.90;;
55069;SDS011;40967;52.070;8.596;2023-07-22T00:54:46;3.15;;;1.60;;
55069;SDS011;40967;52.070;8.596;2023-07-22T00:57:12;2.65;;;1.42;;
55069;SDS011;40967;52.070;8.596;2023-07-22T00:59:38;3.10;;;1.50;;
55069;SDS011;40967;52.070;8.596;2023-07-22T01:02:04;2.97;;;1.50;;
55069;SDS011;40967;52.070;8.596;2023-07-22T01:04:32;2.70;;;1.42;;
55069;SDS011;40967;52.070;8.596;2023-07-22T01:06:58;2.75;;;1.50;;
55069;SDS011;40967;52.070;8.596;2023-07-22T01:09:24;2.97;;;1.50;;
55069;SDS011;40967;52.070;8.596;2023-07-22T01:11:49;3.10;;;1.60;;
55069;SDS011;40967;52.070;8.596;2023-07-22T01:14:14;2.93;;;1.40;;
55069;SDS011;40967;52.070;8.596;2023-07-22T01:16:39;2.30;;;1.37;;
55069;SDS011;40967;52.070;8.596;2023-07-22T01:19:05;2.57;;;1.30;;
55069;SDS011;40967;52.070;8.596;2023-07-22T01:21:31;2.83;;;1.40;;
55069;SDS011;40967;52.070;8.596;2023-07-22T01:23:57;2.13;;;1.20;;
55069;SDS011;40967;52.070;8.596;2023-07-22T01:26:23;2.50;;;1.30;;
55069;SDS011;40967;52.070;8.596;2023-07-22T01:28:49;2.30;;;1.20;;
55069;SDS011;40967;52.070;8.596;2023-07-22T01:31:14;2.50;;;1.27;;
55069;SDS011;40967;52.070;8.596;2023-07-22T01:33:40;2.00;;;1.20;;
55069;SDS011;40967;52.070;8.596;2023-07-22T01:36:05;2.50;;;1.30;;
55069;SDS011;40967;52.070;8.596;2023-07-22T01:38:30;2.03;;;1.00;;
55069;SDS011;40967;52.070;8.596;2023-07-22T01:40:58;2.03;;;1.08;;
55069;SDS011;40967;52.070;8.596;2023-07-22T01:43:24;2.37;;;1.20;;
55069;SDS011;40967;52.070;8.596;2023-07-22T01:45:49;1.83;;;1.03;;
55069;SDS011;40967;52.070;8.596;2023-07-22T01:48:15;2.13;;;1.10;;
55069;SDS011;40967;52.070;8.596;2023-07-22T01:50:41;2.10;;;1.20;;
55069;SDS011;40967;52.070;8.596;2023-07-22T01:53:06;2.60;;;1.37;;
55069;SDS011;40967;52.070;8.596;2023-07-22T01:55:32;1.83;;;1.05;;
55069;SDS011;40967;52.070;8.596;2023-07-22T01:57:58;2.40;;;1.20;;
55069;SDS011;40967;52.070;8.596;2023-07-22T02:00:23;1.90;;;1.10;;
55069;SDS011;40967;52.070;8.596;2023-07-22T02:02:49;1.80;;;1.00;;
55069;SDS011;40967;52.070;8.596;2023-07-22T02:05:14;2.17;;;1.10;;
55069;SDS011;40967;52.070;8.596;2023-07-22T02:07:39;1.93;;;1.00;;
55069;SDS011;40967;52.070;8.596;2023-07-22T02:10:05;1.70;;;1.10;;
55069;SDS011;40967;52.070;8.596;2023-07-22T02:12:31;2.03;;;1.20;;
55069;SDS011;40967;52.070;8.596;2023-07-22T02:14:56;1.63;;;0.90;;
55069;SDS011;40967;52.070;8.596;2023-07-22T02:17:21;2.27;;;1.20;;
55069;SDS011;40967;52.070;8.596;2023-07-22T02:19:48;2.20;;;1.30;;
55069;SDS011;40967;52.070;8.596;2023-07-22T02:22:14;2.27;;;1.10;;
55069;SDS011;40967;52.070;8.596;2023-07-22T02:24:39;2.47;;;1.10;;
55069;SDS011;40967;52.070;8.596;2023-07-22T02:27:04;2.57;;;1.30;;
55069;SDS011;40967;52.070;8.596;2023-07-22T02:29:30;2.60;;;1.35;;
55069;SDS011;40967;52.070;8.596;2023-07-22T02:31:56;2.70;;;1.33;;
55069;SDS011;40967;52.070;8.596;2023-07-22T02:34:22;2.10;;;1.00;;
55069;SDS011;40967;52.070;8.596;2023-07-22T02:36:48;2.67;;;1.50;;
55069;SDS011;40967;52.070;8.596;2023-07-22T02:39:13;1.97;;;1.00;;
55069;SDS011;40967;52.070;8.596;2023-07-22T02:41:39;2.97;;;1.47;;
55069;SDS011;40967;52.070;8.596;2023-07-22T02:44:04;2.10;;;1.30;;
55069;SDS011;40967;52.070;8.596;2023-07-22T02:46:29;2.77;;;1.30;;
55069;SDS011;40967;52.070;8.596;2023-07-22T02:48:55;2.70;;;1.50;;
55069;SDS011;40967;52.070;8.596;2023-07-22T02:51:20;2.70;;;1.40;;
55069;SDS011;40967;52.070;8.596;2023-07-22T02:53:45;2.88;;;1.50;;
55069;SDS011;40967;52.070;8.596;2023-07-22T02:56:11;2.35;;;1.23;;
55069;SDS011;40967;52.070;8.596;2023-07-22T02:58:38;3.20;;;1.45;;
55069;SDS011;40967;52.070;8.596;2023-07-22T03:01:06;3.17;;;1.30;;
55069;SDS011;40967;52.070;8.596;2023-07-22T03:03:33;2.72;;;1.30;;
55069;SDS011;40967;52.070;8.596;2023-07-22T03:05:59;2.42;;;1.30;;
55069;SDS011;40967;52.070;8.596;2023-07-22T03:08:25;2.50;;;1.33;;
55069;SDS011;40967;52.070;8.596;2023-07-22T03:10:51;3.10;;;1.40;;
55069;SDS011;40967;52.070;8.596;2023-07-22T03:13:16;2.43;;;1.30;;
55069;SDS011;40967;52.070;8.596;2023-07-22T03:15:42;2.28;;;1.23;;
55069;SDS011;40967;52.070;8.596;2023-07-22T03:18:08;2.10;;;1.20;;
55069;SDS011;40967;52.070;8.596;2023-07-22T03:20:35;2.15;;;1.10;;
55069;SDS011;40967;52.070;8.596;2023-07-22T03:23:01;2.47;;;1.30;;
55069;SDS011;40967;52.070;8.596;2023-07-22T03:25:27;2.20;;;1.30;;
55069;SDS011;40967;52.070;8.596;2023-07-22T03:27:52;2.60;;;1.40;;
55069;SDS011;40967;52.070;8.596;2023-07-22T03:30:17;2.83;;;1.30;;
55069;SDS011;40967;52.070;8.596;2023-07-22T03:32:44;2.63;;;1.33;;
55069;SDS011;40967;52.070;8.596;2023-07-22T03:35:12;2.13;;;1.10;;
55069;SDS011;40967;52.070;8.596;2023-07-22T03:37:38;1.77;;;1.10;;
55069;SDS011;40967;52.070;8.596;2023-07-22T03:40:03;2.27;;;1.13;;
55069;SDS011;40967;52.070;8.596;2023-07-22T03:42:44;2.38;;;1.20;;
55069;SDS011;40967;52.070;8.596;2023-07-22T03:45:10;2.05;;;1.13;;
55069;SDS011;40967;52.070;8.596;2023-07-22T03:47:35;2.57;;;1.30;;
55069;SDS011;40967;52.070;8.596;2023-07-22T03:50:01;2.30;;;1.20;;
55069;SDS011;40967;52.070;8.596;2023-07-22T03:52:26;2.20;;;1.10;;
55069;SDS011;40967;52.070;8.596;2023-07-22T03:54:52;2.70;;;1.23;;
55069;SDS011;40967;52.070;8.596;2023-07-22T03:57:17;2.13;;;1.13;;
55069;SDS011;40967;52.070;8.596;2023-07-22T03:59:42;3.57;;;1.53;;
55069;SDS011;40967;52.070;8.596;2023-07-22T04:02:08;2.57;;;1.30;;
55069;SDS011;40967;52.070;8.596;2023-07-22T04:04:33;2.07;;;1.10;;
55069;SDS011;40967;52.070;8.596;2023-07-22T04:06:58;2.37;;;1.10;;
55069;SDS011;40967;52.070;8.596;2023-07-22T04:09:23;2.70;;;1.40;;
55069;SDS011;40967;52.070;8.596;2023-07-22T04:11:49;2.63;;;1.37;;
55069;SDS011;40967;52.070;8.596;2023-07-22T04:14:14;2.07;;;1.00;;
55069;SDS011;40967;52.070;8.596;2023-07-22T04:16:40;2.67;;;1.30;;
55069;SDS011;40967;52.070;8.596;2023-07-22T04:19:06;2.33;;;1.20;;
55069;SDS011;40967;52.070;8.596;2023-07-22T04:21:31;1.93;;;1.03;;
55069;SDS011;40967;52.070;8.596;2023-07-22T04:23:56;2.17;;;1.27;;
55069;SDS011;40967;52.070;8.596;2023-07-22T04:26:22;2.03;;;1.10;;
55069;SDS011;40967;52.070;8.596;2023-07-22T04:28:47;3.17;;;1.57;;
55069;SDS011;40967;52.070;8.596;2023-07-22T04:31:12;2.40;;;1.30;;
55069;SDS011;40967;52.070;8.596;2023-07-22T04:33:38;2.13;;;1.20;;
55069;SDS011;40967;52.070;8.596;2023-07-22T04:36:03;2.13;;;1.20;;
55069;SDS011;40967;52.070;8.596;2023-07-22T04:38:29;2.20;;;1.30;;
55069;SDS011;40967;52.070;8.596;2023-07-22T04:40:54;2.10;;;1.20;;
55069;SDS011;40967;52.070;8.596;2023-07-22T04:43:19;2.43;;;1.30;;
55069;SDS011;40967;52.070;8.596;2023-07-22T04:45:45;3.13;;;1.60;;
55069;SDS011;40967;52.070;8.596;2023-07-22T04:48:13;3.03;;;1.50;;
55069;SDS011;40967;52.070;8.596;2023-07-22T04:50:40;3.33;;;1.70;;
55069;SDS011;40967;52.070;8.596;2023-07-22T04:53:09;2.30;;;1.30;;
55069;SDS011;40967;52.070;8.596;2023-07-22T04:55:34;2.83;;;1.40;;
55069;SDS011;40967;52.070;8.596;2023-07-22T04:58:00;4.03;;;2.03;;
55069;SDS011;40967;52.070;8.596;2023-07-22T05:00:25;3.20;;;1.73;;
55069;SDS011;40967;52.070;8.596;2023-07-22T05:02:51;3.10;;;1.55;;
55069;SDS011;40967;52.070;8.596;2023-07-22T05:05:17;3.60;;;1.90;;
55069;SDS011;40967;52.070;8.596;2023-07-22T05:07:43;3.28;;;1.70;;
55069;SDS011;40967;52.070;8.596;2023-07-22T05:10:08;2.53;;;1.40;;
55069;SDS011;40967;52.070;8.596;2023-07-22T05:12:38;3.40;;;1.70;;
55069;SDS011;40967;52.070;8.596;2023-07-22T05:15:04;2.60;;;1.48;;
55069;SDS011;40967;52.070;8.596;2023-07-22T05:17:31;2.20;;;1.20;;
55069;SDS011;40967;52.070;8.596;2023-07-22T05:19:56;2.53;;;1.30;;
55069;SDS011;40967;52.070;8.596;2023-07-22T05:22:22;2.92;;;1.48;;
55069;SDS011;40967;52.070;8.596;2023-07-22T05:24:47;3.40;;;1.90;;
55069;SDS011;40967;52.070;8.596;2023-07-22T05:27:13;3.13;;;1.53;;
55069;SDS011;40967;52.070;8.596;2023-07-22T05:29:38;3.03;;;1.63;;
55069;SDS011;40967;52.070;8.596;2023-07-22T05:32:03;3.57;;;1.70;;
55069;SDS011;40967;52.070;8.596;2023-07-22T05:34:29;2.95;;;1.60;;
55069;SDS011;40967;52.070;8.596;2023-07-22T05:36:54;3.00;;;1.70;;
55069;SDS011;40967;52.070;8.596;2023-07-22T05:39:20;4.20;;;2.30;;
55069;SDS011;40967;52.070;8.596;2023-07-22T05:41:45;3.97;;;1.90;;
55069;SDS011;40967;52.070;8.596;2023-07-22T05:44:10;3.10;;;1.73;;
55069;SDS011;40967;52.070;8.596;2023-07-22T05:46:36;2.97;;;1.70;;
55069;SDS011;40967;52.070;8.596;2023-07-22T05:49:02;3.45;;;1.90;;
55069;SDS011;40967;52.070;8.596;2023-07-22T05:51:27;2.70;;;1.50;;
55069;SDS011;40967;52.070;8.596;2023-07-22T05:53:52;4.23;;;2.33;;
55069;SDS011;40967;52.070;8.596;2023-07-22T05:56:18;3.70;;;1.90;;
55069;SDS011;40967;52.070;8.596;2023-07-22T05:58:43;4.53;;;2.40;;
55069;SDS011;40967;52.070;8.596;2023-07-22T06:01:09;3.53;;;1.87;;
55069;SDS011;40967;52.070;8.596;2023-07-22T06:03:34;4.40;;;2.30;;
55069;SDS011;40967;52.070;8.596;2023-07-22T06:05:59;4.10;;;2.20;;
55069;SDS011;40967;52.070;8.596;2023-07-22T06:08:25;5.03;;;2.90;;
55069;SDS011;40967;52.070;8.596;2023-07-22T06:10:51;4.57;;;2.60;;
55069;SDS011;40967;52.070;8.596;2023-07-22T06:13:16;5.20;;;2.90;;
55069;SDS011;40967;52.070;8.596;2023-07-22T06:15:41;6.17;;;3.57;;
55069;SDS011;40967;52.070;8.596;2023-07-22T06:18:07;5.07;;;3.13;;
55069;SDS011;40967;52.070;8.596;2023-07-22T06:20:34;4.40;;;2.53;;
55069;SDS011;40967;52.070;8.596;2023-07-22T06:22:59;5.03;;;3.03;;
55069;SDS011;40967;52.070;8.596;2023-07-22T06:25:25;5.73;;;3.30;;
55069;SDS011;40967;52.070;8.596;2023-07-22T06:27:50;5.40;;;3.10;;
55069;SDS011;40967;52.070;8.596;2023-07-22T06:30:16;4.97;;;3.10;;
55069;SDS011;40967;52.070;8.596;2023-07-22T06:32:42;5.10;;;2.77;;
55069;SDS011;40967;52.070;8.596;2023-07-22T06:35:07;5.47;;;2.77;;
55069;SDS011;40967;52.070;8.596;2023-07-22T06:37:33;5.80;;;3.28;;
55069;SDS011;40967;52.070;8.596;2023-07-22T06:39:59;5.57;;;3.30;;
55069;SDS011;40967;52.070;8.596;2023-07-22T06:42:24;5.73;;;3.10;;
55069;SDS011;40967;52.070;8.596;2023-07-22T06:44:49;5.80;;;3.33;;
55069;SDS011;40967;52.070;8.596;2023-07-22T06:47:15;4.70;;;2.83;;
55069;SDS011;40967;52.070;8.596;2023-07-22T06:49:40;8.17;;;5.17;;
55069;SDS011;40967;52.070;8.596;2023-07-22T06:52:08;6.97;;;3.95;;
55069;SDS011;40967;52.070;8.596;2023-07-22T06:54:34;8.83;;;4.87;;
55069;SDS011;40967;52.070;8.596;2023-07-22T06:57:00;6.70;;;4.13;;
55069;SDS011;40967;52.070;8.596;2023-07-22T06:59:26;6.68;;;3.92;;
55069;SDS011;40967;52.070;8.596;2023-07-22T07:01:51;10.35;;;5.70;;
55069;SDS011;40967;52.070;8.596;2023-07-22T07:04:17;8.30;;;4.43;;
55069;SDS011;40967;52.070;8.596;2023-07-22T07:06:42;6.53;;;4.13;;
55069;SDS011;40967;52.070;8.596;2023-07-22T07:09:07;5.83;;;3.40;;
55069;SDS011;40967;52.070;8.596;2023-07-22T07:11:33;9.67;;;5.80;;
55069;SDS011;40967;52.070;8.596;2023-07-22T07:13:58;8.70;;;5.50;;
55069;SDS011;40967;52.070;8.596;2023-07-22T07:16:27;8.37;;;5.27;;
55069;SDS011;40967;52.070;8.596;2023-07-22T07:18:56;6.88;;;4.57;;
55069;SDS011;40967;52.070;8.596;2023-07-22T07:21:21;8.27;;;4.87;;
55069;SDS011;40967;52.070;8.596;2023-07-22T07:23:48;11.45;;;7.22;;
55069;SDS011;40967;52.070;8.596;2023-07-22T07:26:14;10.63;;;6.63;;
55069;SDS011;40967;52.070;8.596;2023-07-22T07:28:39;9.48;;;5.85;;
55069;SDS011;40967;52.070;8.596;2023-07-22T07:31:05;8.70;;;5.53;;
55069;SDS011;40967;52.070;8.596;2023-07-22T07:33:30;6.43;;;4.15;;
55069;SDS011;40967;52.070;8.596;2023-07-22T07:35:56;9.15;;;6.00;;
55069;SDS011;40967;52.070;8.596;2023-07-22T07:38:24;7.45;;;4.70;;
55069;SDS011;40967;52.070;8.596;2023-07-22T07:40:53;8.60;;;5.13;;
55069;SDS011;40967;52.070;8.596;2023-07-22T07:43:20;6.10;;;3.85;;
55069;SDS011;40967;52.070;8.596;2023-07-22T07:45:46;8.90;;;4.90;;
55069;SDS011;40967;52.070;8.596;2023-07-22T07:48:11;7.70;;;4.50;;
55069;SDS011;40967;52.070;8.596;2023-07-22T07:50:36;7.63;;;4.67;;
55069;SDS011;40967;52.070;8.596;2023-07-22T07:53:02;8.43;;;5.40;;
55069;SDS011;40967;52.070;8.596;2023-07-22T07:55:27;6.70;;;4.27;;
55069;SDS011;40967;52.070;8.596;2023-07-22T07:58:02;6.50;;;4.33;;
55069;SDS011;40967;52.070;8.596;2023-07-22T08:00:27;6.50;;;4.30;;
55069;SDS011;40967;52.070;8.596;2023-07-22T08:02:53;5.60;;;3.80;;
55069;SDS011;40967;52.070;8.596;2023-07-22T08:05:18;7.47;;;4.90;;
55069;SDS011;40967;52.070;8.596;2023-07-22T08:07:43;6.07;;;4.10;;
55069;SDS011;40967;52.070;8.596;2023-07-22T08:10:09;5.80;;;3.40;;
55069;SDS011;40967;52.070;8.596;2023-07-22T08:12:34;5.28;;;3.50;;
55069;SDS011;40967;52.070;8.596;2023-07-22T08:15:02;5.07;;;3.10;;
55069;SDS011;40967;52.070;8.596;2023-07-22T08:17:28;5.10;;;3.22;;
55069;SDS011;40967;52.070;8.596;2023-07-22T08:19:53;5.83;;;3.73;;
55069;SDS011;40967;52.070;8.596;2023-07-22T08:22:18;5.63;;;3.60;;
55069;SDS011;40967;52.070;8.596;2023-07-22T08:24:43;5.33;;;3.30;;
55069;SDS011;40967;52.070;8.596;2023-07-22T08:27:09;4.68;;;3.08;;
55069;SDS011;40967;52.070;8.596;2023-07-22T08:29:35;4.00;;;2.40;;
55069;SDS011;40967;52.070;8.596;2023-07-22T08:32:01;4.47;;;2.90;;
55069;SDS011;40967;52.070;8.596;2023-07-22T08:34:26;4.93;;;2.88;;
55069;SDS011;40967;52.070;8.596;2023-07-22T08:36:57;4.70;;;2.70;;
55069;SDS011;40967;52.070;8.596;2023-07-22T08:39:59;3.65;;;2.25;;
55069;SDS011;40967;52.070;8.596;2023-07-22T08:42:24;4.63;;;2.63;;
55069;SDS011;40967;52.070;8.596;2023-07-22T08:44:58;3.70;;;2.22;;
55069;SDS011;40967;52.070;8.596;2023-07-22T08:48:05;3.10;;;1.77;;
55069;SDS011;40967;52.070;8.596;2023-07-22T08:51:03;3.15;;;1.75;;
55069;SDS011;40967;52.070;8.596;2023-07-22T08:53:30;2.90;;;1.80;;
55069;SDS011;40967;52.070;8.596;2023-07-22T08:55:58;4.35;;;2.03;;
55069;SDS011;40967;52.070;8.596;2023-07-22T08:58:24;3.60;;;2.03;;
55069;SDS011;40967;52.070;8.596;2023-07-22T09:00:49;3.10;;;1.90;;
55069;SDS011;40967;52.070;8.596;2023-07-22T09:03:16;2.95;;;1.73;;
55069;SDS011;40967;52.070;8.596;2023-07-22T09:05:42;2.80;;;1.73;;
55069;SDS011;40967;52.070;8.596;2023-07-22T09:08:10;3.25;;;2.10;;
55069;SDS011;40967;52.070;8.596;2023-07-22T09:10:36;3.50;;;2.03;;
55069;SDS011;40967;52.070;8.596;2023-07-22T09:13:02;3.75;;;2.08;;
55069;SDS011;40967;52.070;8.596;2023-07-22T09:15:28;3.63;;;1.92;;
55069;SDS011;40967;52.070;8.596;2023-07-22T09:17:56;4.57;;;2.50;;
55069;SDS011;40967;52.070;8.596;2023-07-22T09:20:22;3.57;;;2.00;;
55069;SDS011;40967;52.070;8.596;2023-07-22T09:22:49;4.68;;;2.58;;
55069;SDS011;40967;52.070;8.596;2023-07-22T09:27:49;5.80;;;3.40;;
55069;SDS011;40967;52.070;8.596;2023-07-22T09:32:47;4.32;;;2.83;;
55069;SDS011;40967;52.070;8.596;2023-07-22T09:35:13;4.90;;;3.00;;
55069;SDS011;40967;52.070;8.596;2023-07-22T09:37:39;4.53;;;2.80;;
55069;SDS011;40967;52.070;8.596;2023-07-22T09:40:13;4.67;;;3.00;;
55069;SDS011;40967;52.070;8.596;2023-07-22T09:42:42;5.90;;;3.75;;
55069;SDS011;40967;52.070;8.596;2023-07-22T09:45:09;5.67;;;3.60;;
55069;SDS011;40967;52.070;8.596;2023-07-22T09:48:08;4.73;;;2.80;;
55069;SDS011;40967;52.070;8.596;2023-07-22T09:50:26;7.72;;;4.53;;
55069;SDS011;40967;52.070;8.596;2023-07-22T09:52:54;7.63;;;4.95;;
55069;SDS011;40967;52.070;8.596;2023-07-22T09:55:21;7.38;;;4.10;;
55069;SDS011;40967;52.070;8.596;2023-07-22T09:57:52;6.75;;;3.95;;
55069;SDS011;40967;52.070;8.596;2023-07-22T10:00:35;6.32;;;4.10;;
55069;SDS011;40967;52.070;8.596;2023-07-22T10:03:01;5.70;;;3.60;;
55069;SDS011;40967;52.070;8.596;2023-07-22T10:05:33;4.75;;;2.70;;
55069;SDS011;40967;52.070;8.596;2023-07-22T10:08:00;5.32;;;3.10;;
55069;SDS011;40967;52.070;8.596;2023-07-22T10:10:37;9.05;;;5.30;;
55069;SDS011;40967;52.070;8.596;2023-07-22T10:13:04;7.30;;;4.13;;
55069;SDS011;40967;52.070;8.596;2023-07-22T10:15:30;6.00;;;3.80;;
55069;SDS011;40967;52.070;8.596;2023-07-22T10:17:58;8.00;;;4.53;;
55069;SDS011;40967;52.070;8.596;2023-07-22T10:20:24;8.13;;;4.95;;
55069;SDS011;40967;52.070;8.596;2023-07-22T10:22:50;6.03;;;4.00;;
55069;SDS011;40967;52.070;8.596;2023-07-22T10:25:17;5.38;;;3.33;;
55069;SDS011;40967;52.070;8.596;2023-07-22T10:27:43;5.38;;;3.08;;
55069;SDS011;40967;52.070;8.596;2023-07-22T10:30:10;6.50;;;4.10;;
55069;SDS011;40967;52.070;8.596;2023-07-22T10:35:10;4.67;;;3.03;;
55069;SDS011;40967;52.070;8.596;2023-07-22T10:37:38;5.17;;;3.07;;
55069;SDS011;40967;52.070;8.596;2023-07-22T10:43:05;6.32;;;3.88;;
55069;SDS011;40967;52.070;8.596;2023-07-22T10:45:32;6.22;;;4.15;;
55069;SDS011;40967;52.070;8.596;2023-07-22T10:48:10;4.50;;;2.78;;
55069;SDS011;40967;52.070;8.596;2023-07-22T10:50:41;4.13;;;2.50;;
55069;SDS011;40967;52.070;8.596;2023-07-22T10:56:11;4.50;;;3.20;;
55069;SDS011;40967;52.070;8.596;2023-07-22T10:58:54;6.00;;;3.60;;
55069;SDS011;40967;52.070;8.596;2023-07-22T11:14:31;4.30;;;2.50;;
55069;SDS011;40967;52.070;8.596;2023-07-22T11:16:58;3.17;;;1.90;;
55069;SDS011;40967;52.070;8.596;2023-07-22T11:19:35;3.95;;;2.22;;
55069;SDS011;40967;52.070;8.596;2023-07-22T11:22:00;6.53;;;3.35;;
55069;SDS011;40967;52.070;8.596;2023-07-22T11:24:26;6.77;;;3.40;;
55069;SDS011;40967;52.070;8.596;2023-07-22T11:26:52;4.97;;;3.00;;
55069;SDS011;40967;52.070;8.596;2023-07-22T11:29:18;4.88;;;2.70;;
55069;SDS011;40967;52.070;8.596;2023-07-22T11:31:45;4.72;;;2.53;;
55069;SDS011;40967;52.070;8.596;2023-07-22T11:34:22;4.60;;;2.78;;
55069;SDS011;40967;52.070;8.596;2023-07-22T11:36:49;4.40;;;2.67;;
55069;SDS011;40967;52.070;8.596;2023-07-22T11:39:16;4.35;;;2.88;;
55069;SDS011;40967;52.070;8.596;2023-07-22T11:41:43;5.68;;;2.90;;
55069;SDS011;40967;52.070;8.596;2023-07-22T11:44:11;4.30;;;2.50;;
55069;SDS011;40967;52.070;8.596;2023-07-22T11:49:29;4.55;;;2.60;;
55069;SDS011;40967;52.070;8.596;2023-07-22T11:52:11;6.55;;;3.42;;
55069;SDS011;40967;52.070;8.596;2023-07-22T11:54:42;4.57;;;3.15;;
55069;SDS011;40967;52.070;8.596;2023-07-22T11:59:49;6.32;;;3.80;;
55069;SDS011;40967;52.070;8.596;2023-07-22T12:04:55;5.93;;;3.65;;
55069;SDS011;40967;52.070;8.596;2023-07-22T12:07:25;6.43;;;3.93;;
55069;SDS011;40967;52.070;8.596;2023-07-22T12:09:54;5.53;;;3.22;;
55069;SDS011;40967;52.070;8.596;2023-07-22T12:12:31;5.40;;;3.60;;
55069;SDS011;40967;52.070;8.596;2023-07-22T12:15:02;3.90;;;2.53;;
55069;SDS011;40967;52.070;8.596;2023-07-22T12:17:29;4.72;;;3.08;;
55069;SDS011;40967;52.070;8.596;2023-07-22T12:19:54;4.32;;;2.10;;
55069;SDS011;40967;52.070;8.596;2023-07-22T12:22:20;6.53;;;4.10;;
55069;SDS011;40967;52.070;8.596;2023-07-22T12:24:48;4.43;;;2.50;;
55069;SDS011;40967;52.070;8.596;2023-07-22T12:27:13;4.03;;;2.27;;
55069;SDS011;40967;52.070;8.596;2023-07-22T12:29:39;4.37;;;2.83;;
55069;SDS011;40967;52.070;8.596;2023-07-22T12:32:04;4.03;;;2.40;;
55069;SDS011;40967;52.070;8.596;2023-07-22T12:34:30;3.87;;;2.33;;
55069;SDS011;40967;52.070;8.596;2023-07-22T12:36:55;3.37;;;2.00;;
55069;SDS011;40967;52.070;8.596;2023-07-22T12:39:21;5.73;;;3.13;;
55069;SDS011;40967;52.070;8.596;2023-07-22T12:41:46;4.83;;;3.23;;
55069;SDS011;40967;52.070;8.596;2023-07-22T12:44:11;4.93;;;3.03;;
55069;SDS011;40967;52.070;8.596;2023-07-22T12:46:37;5.50;;;3.60;;
55069;SDS011;40967;52.070;8.596;2023-07-22T12:49:02;3.95;;;2.50;;
55069;SDS011;40967;52.070;8.596;2023-07-22T12:51:27;4.60;;;3.10;;
55069;SDS011;40967;52.070;8.596;2023-07-22T12:53:53;4.77;;;3.07;;
55069;SDS011;40967;52.070;8.596;2023-07-22T12:56:18;4.53;;;2.60;;
55069;SDS011;40967;52.070;8.596;2023-07-22T12:58:43;3.43;;;2.00;;
55069;SDS011;40967;52.070;8.596;2023-07-22T13:01:08;2.93;;;1.77;;
55069;SDS011;40967;52.070;8.596;2023-07-22T13:03:34;5.93;;;3.33;;
55069;SDS011;40967;52.070;8.596;2023-07-22T13:05:59;3.85;;;2.30;;
55069;SDS011;40967;52.070;8.596;2023-07-22T13:08:24;5.43;;;2.83;;
55069;SDS011;40967;52.070;8.596;2023-07-22T13:10:50;3.30;;;2.00;;
55069;SDS011;40967;52.070;8.596;2023-07-22T13:13:15;5.07;;;2.90;;
55069;SDS011;40967;52.070;8.596;2023-07-22T13:15:40;3.90;;;2.57;;
55069;SDS011;40967;52.070;8.596;2023-07-22T13:18:06;3.73;;;2.30;;
55069;SDS011;40967;52.070;8.596;2023-07-22T13:20:32;3.63;;;2.10;;
55069;SDS011;40967;52.070;8.596;2023-07-22T13:22:57;3.38;;;1.70;;
55069;SDS011;40967;52.070;8.596;2023-07-22T13:25:23;2.77;;;1.40;;
55069;SDS011;40967;52.070;8.596;2023-07-22T13:27:48;2.70;;;1.50;;
55069;SDS011;40967;52.070;8.596;2023-07-22T13:30:16;4.03;;;2.20;;
55069;SDS011;40967;52.070;8.596;2023-07-22T13:32:42;3.35;;;1.80;;
55069;SDS011;40967;52.070;8.596;2023-07-22T13:35:07;3.77;;;2.17;;
55069;SDS011;40967;52.070;8.596;2023-07-22T13:37:34;2.85;;;1.67;;
55069;SDS011;40967;52.070;8.596;2023-07-22T13:39:59;2.37;;;1.40;;
55069;SDS011;40967;52.070;8.596;2023-07-22T13:42:25;3.03;;;1.70;;
55069;SDS011;40967;52.070;8.596;2023-07-22T13:44:50;2.90;;;1.80;;
55069;SDS011;40967;52.070;8.596;2023-07-22T13:47:15;3.00;;;1.70;;
55069;SDS011;40967;52.070;8.596;2023-07-22T13:49:41;3.63;;;2.10;;
55069;SDS011;40967;52.070;8.596;2023-07-22T13:52:06;3.05;;;1.60;;
55069;SDS011;40967;52.070;8.596;2023-07-22T13:54:31;4.17;;;2.43;;
55069;SDS011;40967;52.070;8.596;2023-07-22T13:56:57;3.80;;;2.23;;
55069;SDS011;40967;52.070;8.596;2023-07-22T13:59:22;3.77;;;2.17;;
55069;SDS011;40967;52.070;8.596;2023-07-22T14:01:47;3.17;;;1.77;;
55069;SDS011;40967;52.070;8.596;2023-07-22T14:04:13;3.60;;;2.20;;
55069;SDS011;40967;52.070;8.596;2023-07-22T14:06:38;2.83;;;1.65;;
55069;SDS011;40967;52.070;8.596;2023-07-22T14:09:03;3.27;;;1.80;;
55069;SDS011;40967;52.070;8.596;2023-07-22T14:11:28;3.13;;;1.80;;
55069;SDS011;40967;52.070;8.596;2023-07-22T14:13:54;3.97;;;2.37;;
55069;SDS011;40967;52.070;8.596;2023-07-22T14:16:19;3.17;;;1.97;;
55069;SDS011;40967;52.070;8.596;2023-07-22T14:18:45;3.60;;;2.00;;
55069;SDS011;40967;52.070;8.596;2023-07-22T14:21:10;3.38;;;1.95;;
55069;SDS011;40967;52.070;8.596;2023-07-22T14:23:36;3.30;;;2.00;;
55069;SDS011;40967;52.070;8.596;2023-07-22T14:26:04;3.90;;;2.35;;
55069;SDS011;40967;52.070;8.596;2023-07-22T14:28:29;3.70;;;2.00;;
55069;SDS011;40967;52.070;8.596;2023-07-22T14:30:55;5.20;;;2.20;;
55069;SDS011;40967;52.070;8.596;2023-07-22T14:33:20;3.37;;;1.90;;
55069;SDS011;40967;52.070;8.596;2023-07-22T14:35:45;3.80;;;2.03;;
55069;SDS011;40967;52.070;8.596;2023-07-22T14:38:11;3.30;;;2.00;;
55069;SDS011;40967;52.070;8.596;2023-07-22T14:40:36;2.97;;;1.77;;
55069;SDS011;40967;52.070;8.596;2023-07-22T14:43:01;3.38;;;1.83;;
55069;SDS011;40967;52.070;8.596;2023-07-22T14:45:27;3.17;;;1.80;;
55069;SDS011;40967;52.070;8.596;2023-07-22T14:47:52;2.90;;;1.60;;
55069;SDS011;40967;52.070;8.596;2023-07-22T14:50:17;2.50;;;1.40;;
55069;SDS011;40967;52.070;8.596;2023-07-22T14:52:43;3.40;;;1.83;;
55069;SDS011;40967;52.070;8.596;2023-07-22T14:55:09;3.33;;;1.88;;
55069;SDS011;40967;52.070;8.596;2023-07-22T14:57:34;3.60;;;1.60;;
55069;SDS011;40967;52.070;8.596;2023-07-22T14:59:59;2.75;;;1.60;;
55069;SDS011;40967;52.070;8.596;2023-07-22T15:02:25;3.27;;;1.70;;
55069;SDS011;40967;52.070;8.596;2023-07-22T15:04:50;4.73;;;1.97;;
55069;SDS011;40967;52.070;8.596;2023-07-22T15:07:15;2.77;;;1.57;;
55069;SDS011;40967;52.070;8.596;2023-07-22T15:09:41;2.80;;;1.50;;
55069;SDS011;40967;52.070;8.596;2023-07-22T15:12:06;2.77;;;1.60;;
55069;SDS011;40967;52.070;8.596;2023-07-22T15:14:32;2.97;;;1.60;;
55069;SDS011;40967;52.070;8.596;2023-07-22T15:16:58;2.53;;;1.40;;
55069;SDS011;40967;52.070;8.596;2023-07-22T15:19:24;2.55;;;1.42;;